sensor_id;sensor_type;location;lat;lon;timestamp;P1;durP1;ratioP1;P2;durP2;ratioP2
39066;SDS011;24821;51.988;6.020;2022-09-13T00:00:49;19.00;;;18.00;;
39066;SDS011;24821;51.988;6.020;2022-09-13T00:03:17;17.30;;;16.02;;
39066;SDS011;24821;51.988;6.020;2022-09-13T00:05:43;16.63;;;15.77;;
39066;SDS011;24821;51.988;6.020;2022-09-13T00:08:08;17.33;;;16.42;;
39066;SDS011;24821;51.988;6.020;2022-09-13T00:10:35;16.95;;;16.05;;
39066;SDS011;24821;51.988;6.020;2022-09-13T00:13:03;16.65;;;15.75;;
39066;SDS011;24821;51.988;6.020;2022-09-13T00:15:29;16.45;;;15.55;;
39066;SDS011;24821;51.988;6.020;2022-09-13T00:17:55;16.70;;;15.80;;
39066;SDS011;24821;51.988;6.020;2022-09-13T00:20:21;17.25;;;16.08;;
39066;SDS011;24821;51.988;6.020;2022-09-13T00:22:47;17.50;;;16.40;;
39066;SDS011;24821;51.988;6.020;2022-09-13T00:25:12;17.73;;;16.63;;
39066;SDS011;24821;51.988;6.020;2022-09-13T00:27:38;16.75;;;15.85;;
39066;SDS011;24821;51.988;6.020;2022-09-13T00:30:04;16.55;;;15.75;;
39066;SDS011;24821;51.988;6.020;2022-09-13T00:32:32;17.38;;;16.38;;
39066;SDS011;24821;51.988;6.020;2022-09-13T00:34:59;17.95;;;16.95;;
39066;SDS011;24821;51.988;6.020;2022-09-13T00:37:30;17.50;;;16.40;;
39066;SDS011;24821;51.988;6.020;2022-09-13T00:39:57;17.58;;;16.42;;
39066;SDS011;24821;51.988;6.020;2022-09-13T00:42:23;18.13;;;17.23;;
39066;SDS011;24821;51.988;6.020;2022-09-13T00:44:57;17.00;;;16.00;;
39066;SDS011;24821;51.988;6.020;2022-09-13T00:50:10;17.33;;;16.42;;
39066;SDS011;24821;51.988;6.020;2022-09-13T00:55:43;16.13;;;15.30;;
39066;SDS011;24821;51.988;6.020;2022-09-13T00:58:19;16.95;;;16.05;;
39066;SDS011;24821;51.988;6.020;2022-09-13T01:00:59;17.83;;;16.73;;
39066;SDS011;24821;51.988;6.020;2022-09-13T01:03:28;17.52;;;16.42;;
39066;SDS011;24821;51.988;6.020;2022-09-13T01:05:59;19.10;;;18.10;;
39066;SDS011;24821;51.988;6.020;2022-09-13T01:08:35;16.48;;;15.57;;
39066;SDS011;24821;51.988;6.020;2022-09-13T01:11:03;17.02;;;16.08;;
39066;SDS011;24821;51.988;6.020;2022-09-13T01:13:36;18.27;;;17.27;;
39066;SDS011;24821;51.988;6.020;2022-09-13T01:16:02;18.63;;;17.63;;
39066;SDS011;24821;51.988;6.020;2022-09-13T01:18:28;18.55;;;17.50;;
39066;SDS011;24821;51.988;6.020;2022-09-13T01:32:05;19.10;;;18.10;;
39066;SDS011;24821;51.988;6.020;2022-09-13T01:40:29;20.95;;;19.85;;
39066;SDS011;24821;51.988;6.020;2022-09-13T01:48:43;22.33;;;21.13;;
39066;SDS011;24821;51.988;6.020;2022-09-13T01:51:25;22.63;;;21.38;;
39066;SDS011;24821;51.988;6.020;2022-09-13T01:57:01;22.35;;;21.15;;
39066;SDS011;24821;51.988;6.020;2022-09-13T01:59:47;22.02;;;20.83;;
39066;SDS011;24821;51.988;6.020;2022-09-13T02:02:17;22.30;;;21.17;;
39066;SDS011;24821;51.988;6.020;2022-09-13T02:04:51;23.98;;;22.77;;
39066;SDS011;24821;51.988;6.020;2022-09-13T02:09:50;24.17;;;22.67;;
39066;SDS011;24821;51.988;6.020;2022-09-13T02:12:22;23.63;;;22.33;;
39066;SDS011;24821;51.988;6.020;2022-09-13T02:14:53;23.88;;;22.67;;
39066;SDS011;24821;51.988;6.020;2022-09-13T02:17:24;23.05;;;21.85;;
39066;SDS011;24821;51.988;6.020;2022-09-13T02:20:02;24.00;;;22.63;;
39066;SDS011;24821;51.988;6.020;2022-09-13T02:22:38;24.00;;;22.80;;
39066;SDS011;24821;51.988;6.020;2022-09-13T02:25:11;24.23;;;23.00;;
39066;SDS011;24821;51.988;6.020;2022-09-13T02:27:40;23.77;;;22.48;;
39066;SDS011;24821;51.988;6.020;2022-09-13T02:30:10;24.65;;;23.23;;
39066;SDS011;24821;51.988;6.020;2022-09-13T02:37:34;23.98;;;22.67;;
39066;SDS011;24821;51.988;6.020;2022-09-13T02:40:03;23.60;;;22.40;;
39066;SDS011;24821;51.988;6.020;2022-09-13T02:45:13;22.52;;;21.33;;
39066;SDS011;24821;51.988;6.020;2022-09-13T02:47:59;22.92;;;21.52;;
39066;SDS011;24821;51.988;6.020;2022-09-13T02:53:40;26.55;;;25.25;;
39066;SDS011;24821;51.988;6.020;2022-09-13T02:58:59;24.02;;;22.63;;
39066;SDS011;24821;51.988;6.020;2022-09-13T03:01:55;23.67;;;22.42;;
39066;SDS011;24821;51.988;6.020;2022-09-13T03:04:29;23.00;;;21.70;;
39066;SDS011;24821;51.988;6.020;2022-09-13T03:06:56;22.88;;;21.58;;
39066;SDS011;24821;51.988;6.020;2022-09-13T03:09:23;23.58;;;22.38;;
39066;SDS011;24821;51.988;6.020;2022-09-13T03:12:27;22.52;;;21.27;;
39066;SDS011;24821;51.988;6.020;2022-09-13T03:23:06;22.70;;;21.40;;
39066;SDS011;24821;51.988;6.020;2022-09-13T03:25:38;22.98;;;21.75;;
39066;SDS011;24821;51.988;6.020;2022-09-13T03:31:08;23.55;;;22.25;;
39066;SDS011;24821;51.988;6.020;2022-09-13T03:33:45;21.52;;;20.33;;
39066;SDS011;24821;51.988;6.020;2022-09-13T03:36:17;23.73;;;22.40;;
39066;SDS011;24821;51.988;6.020;2022-09-13T03:41:57;22.75;;;21.55;;
39066;SDS011;24821;51.988;6.020;2022-09-13T03:44:29;22.67;;;21.27;;
39066;SDS011;24821;51.988;6.020;2022-09-13T03:46:57;23.40;;;22.08;;
39066;SDS011;24821;51.988;6.020;2022-09-13T03:49:25;21.60;;;20.38;;
39066;SDS011;24821;51.988;6.020;2022-09-13T03:51:53;23.35;;;21.92;;
39066;SDS011;24821;51.988;6.020;2022-09-13T03:54:23;21.92;;;20.70;;
39066;SDS011;24821;51.988;6.020;2022-09-13T03:59:34;21.38;;;20.17;;
39066;SDS011;24821;51.988;6.020;2022-09-13T04:02:02;21.23;;;19.90;;
39066;SDS011;24821;51.988;6.020;2022-09-13T04:04:28;21.25;;;20.02;;
39066;SDS011;24821;51.988;6.020;2022-09-13T04:06:54;22.30;;;21.00;;
39066;SDS011;24821;51.988;6.020;2022-09-13T04:09:21;20.95;;;19.75;;
39066;SDS011;24821;51.988;6.020;2022-09-13T04:11:47;21.80;;;20.60;;
39066;SDS011;24821;51.988;6.020;2022-09-13T04:14:12;21.27;;;19.80;;
39066;SDS011;24821;51.988;6.020;2022-09-13T04:16:40;20.75;;;19.45;;
39066;SDS011;24821;51.988;6.020;2022-09-13T04:19:05;20.75;;;19.63;;
39066;SDS011;24821;51.988;6.020;2022-09-13T04:21:31;20.33;;;18.92;;
39066;SDS011;24821;51.988;6.020;2022-09-13T04:23:57;22.17;;;20.95;;
39066;SDS011;24821;51.988;6.020;2022-09-13T04:26:22;21.50;;;20.27;;
39066;SDS011;24821;51.988;6.020;2022-09-13T04:28:48;19.80;;;18.33;;
39066;SDS011;24821;51.988;6.020;2022-09-13T04:31:13;23.20;;;21.15;;
39066;SDS011;24821;51.988;6.020;2022-09-13T04:33:39;20.65;;;19.55;;
39066;SDS011;24821;51.988;6.020;2022-09-13T04:36:05;20.80;;;19.63;;
39066;SDS011;24821;51.988;6.020;2022-09-13T04:38:30;18.63;;;17.52;;
39066;SDS011;24821;51.988;6.020;2022-09-13T04:40:56;21.45;;;20.15;;
39066;SDS011;24821;51.988;6.020;2022-09-13T04:43:22;19.35;;;18.30;;
39066;SDS011;24821;51.988;6.020;2022-09-13T04:45:48;20.83;;;19.70;;
39066;SDS011;24821;51.988;6.020;2022-09-13T04:48:14;19.55;;;18.45;;
39066;SDS011;24821;51.988;6.020;2022-09-13T04:50:40;18.95;;;17.90;;
39066;SDS011;24821;51.988;6.020;2022-09-13T04:53:06;19.20;;;18.20;;
39066;SDS011;24821;51.988;6.020;2022-09-13T04:55:31;19.98;;;18.60;;
39066;SDS011;24821;51.988;6.020;2022-09-13T04:57:57;20.75;;;19.65;;
39066;SDS011;24821;51.988;6.020;2022-09-13T05:00:22;19.27;;;18.17;;
39066;SDS011;24821;51.988;6.020;2022-09-13T05:02:53;19.63;;;18.55;;
39066;SDS011;24821;51.988;6.020;2022-09-13T05:05:20;21.70;;;20.42;;
39066;SDS011;24821;51.988;6.020;2022-09-13T05:07:48;23.13;;;21.73;;
39066;SDS011;24821;51.988;6.020;2022-09-13T05:10:15;22.40;;;21.13;;
39066;SDS011;24821;51.988;6.020;2022-09-13T05:12:40;22.30;;;20.90;;
39066;SDS011;24821;51.988;6.020;2022-09-13T05:15:06;22.25;;;20.73;;
39066;SDS011;24821;51.988;6.020;2022-09-13T05:17:32;21.90;;;20.40;;
39066;SDS011;24821;51.988;6.020;2022-09-13T05:19:57;20.75;;;19.55;;
39066;SDS011;24821;51.988;6.020;2022-09-13T05:22:23;21.13;;;19.92;;
39066;SDS011;24821;51.988;6.020;2022-09-13T05:24:48;20.17;;;19.00;;
39066;SDS011;24821;51.988;6.020;2022-09-13T05:27:14;21.85;;;20.52;;
39066;SDS011;24821;51.988;6.020;2022-09-13T05:29:40;22.30;;;21.00;;
39066;SDS011;24821;51.988;6.020;2022-09-13T05:32:05;20.08;;;18.98;;
39066;SDS011;24821;51.988;6.020;2022-09-13T05:34:31;20.42;;;19.08;;
39066;SDS011;24821;51.988;6.020;2022-09-13T05:36:56;20.73;;;19.63;;
39066;SDS011;24821;51.988;6.020;2022-09-13T05:39:22;19.33;;;18.17;;
39066;SDS011;24821;51.988;6.020;2022-09-13T05:41:47;20.13;;;18.85;;
39066;SDS011;24821;51.988;6.020;2022-09-13T05:44:13;19.83;;;18.73;;
39066;SDS011;24821;51.988;6.020;2022-09-13T05:46:39;22.63;;;21.17;;
39066;SDS011;24821;51.988;6.020;2022-09-13T05:49:05;22.50;;;20.92;;
39066;SDS011;24821;51.988;6.020;2022-09-13T05:51:30;22.42;;;20.95;;
39066;SDS011;24821;51.988;6.020;2022-09-13T05:53:56;22.80;;;21.17;;
39066;SDS011;24821;51.988;6.020;2022-09-13T05:56:24;21.38;;;20.08;;
39066;SDS011;24821;51.988;6.020;2022-09-13T05:58:52;21.83;;;20.10;;
39066;SDS011;24821;51.988;6.020;2022-09-13T06:01:19;23.15;;;21.58;;
39066;SDS011;24821;51.988;6.020;2022-09-13T06:03:46;20.23;;;18.92;;
39066;SDS011;24821;51.988;6.020;2022-09-13T06:06:13;21.13;;;19.83;;
39066;SDS011;24821;51.988;6.020;2022-09-13T06:08:40;20.42;;;19.13;;
39066;SDS011;24821;51.988;6.020;2022-09-13T06:11:06;19.23;;;18.13;;
39066;SDS011;24821;51.988;6.020;2022-09-13T06:16:40;19.58;;;18.27;;
39066;SDS011;24821;51.988;6.020;2022-09-13T06:19:06;18.23;;;17.13;;
39066;SDS011;24821;51.988;6.020;2022-09-13T06:21:32;19.70;;;18.50;;
39066;SDS011;24821;51.988;6.020;2022-09-13T06:23:58;19.33;;;17.92;;
39066;SDS011;24821;51.988;6.020;2022-09-13T06:26:25;18.38;;;17.20;;
39066;SDS011;24821;51.988;6.020;2022-09-13T06:28:53;20.23;;;18.85;;
39066;SDS011;24821;51.988;6.020;2022-09-13T06:31:21;21.60;;;20.27;;
39066;SDS011;24821;51.988;6.020;2022-09-13T06:33:54;23.20;;;21.73;;
39066;SDS011;24821;51.988;6.020;2022-09-13T06:36:21;25.80;;;24.27;;
39066;SDS011;24821;51.988;6.020;2022-09-13T06:38:47;23.25;;;21.98;;
39066;SDS011;24821;51.988;6.020;2022-09-13T06:41:14;24.23;;;22.83;;
39066;SDS011;24821;51.988;6.020;2022-09-13T06:43:46;25.63;;;24.13;;
39066;SDS011;24821;51.988;6.020;2022-09-13T06:46:15;24.42;;;22.80;;
39066;SDS011;24821;51.988;6.020;2022-09-13T06:48:42;24.35;;;22.95;;
39066;SDS011;24821;51.988;6.020;2022-09-13T06:51:10;25.83;;;24.13;;
39066;SDS011;24821;51.988;6.020;2022-09-13T06:53:37;26.65;;;24.95;;
39066;SDS011;24821;51.988;6.020;2022-09-13T06:58:50;25.65;;;23.98;;
39066;SDS011;24821;51.988;6.020;2022-09-13T07:01:23;24.83;;;23.30;;
39066;SDS011;24821;51.988;6.020;2022-09-13T07:04:03;24.15;;;22.75;;
39066;SDS011;24821;51.988;6.020;2022-09-13T07:06:31;24.23;;;22.77;;
39066;SDS011;24821;51.988;6.020;2022-09-13T07:08:59;24.33;;;22.83;;
39066;SDS011;24821;51.988;6.020;2022-09-13T07:11:26;24.73;;;23.33;;
39066;SDS011;24821;51.988;6.020;2022-09-13T07:13:55;24.65;;;23.02;;
39066;SDS011;24821;51.988;6.020;2022-09-13T07:16:23;25.23;;;23.52;;
39066;SDS011;24821;51.988;6.020;2022-09-13T07:18:54;23.48;;;21.88;;
39066;SDS011;24821;51.988;6.020;2022-09-13T07:21:21;24.52;;;23.02;;
39066;SDS011;24821;51.988;6.020;2022-09-13T07:23:47;25.13;;;23.52;;
39066;SDS011;24821;51.988;6.020;2022-09-13T07:28:49;24.95;;;23.35;;
39066;SDS011;24821;51.988;6.020;2022-09-13T07:31:21;24.23;;;22.73;;
39066;SDS011;24821;51.988;6.020;2022-09-13T07:34:04;25.83;;;24.02;;
39066;SDS011;24821;51.988;6.020;2022-09-13T07:36:33;25.48;;;23.55;;
39066;SDS011;24821;51.988;6.020;2022-09-13T07:38:59;22.92;;;21.42;;
39066;SDS011;24821;51.988;6.020;2022-09-13T07:41:26;26.55;;;24.70;;
39066;SDS011;24821;51.988;6.020;2022-09-13T07:43:53;27.20;;;25.20;;
39066;SDS011;24821;51.988;6.020;2022-09-13T07:46:23;26.70;;;24.80;;
39066;SDS011;24821;51.988;6.020;2022-09-13T07:48:51;26.60;;;24.92;;
39066;SDS011;24821;51.988;6.020;2022-09-13T07:51:20;24.70;;;23.10;;
39066;SDS011;24821;51.988;6.020;2022-09-13T07:53:47;24.35;;;22.65;;
39066;SDS011;24821;51.988;6.020;2022-09-13T07:56:15;26.38;;;24.67;;
39066;SDS011;24821;51.988;6.020;2022-09-13T07:58:43;26.10;;;24.38;;
39066;SDS011;24821;51.988;6.020;2022-09-13T08:01:10;26.00;;;24.30;;
39066;SDS011;24821;51.988;6.020;2022-09-13T08:03:38;18.23;;;16.98;;
39066;SDS011;24821;51.988;6.020;2022-09-13T08:06:04;19.48;;;18.27;;
39066;SDS011;24821;51.988;6.020;2022-09-13T08:08:31;17.42;;;16.33;;
39066;SDS011;24821;51.988;6.020;2022-09-13T08:10:57;18.23;;;16.88;;
39066;SDS011;24821;51.988;6.020;2022-09-13T08:13:24;17.58;;;16.27;;
39066;SDS011;24821;51.988;6.020;2022-09-13T08:15:49;17.95;;;16.85;;
39066;SDS011;24821;51.988;6.020;2022-09-13T08:18:16;14.38;;;13.40;;
39066;SDS011;24821;51.988;6.020;2022-09-13T08:20:42;18.23;;;17.13;;
39066;SDS011;24821;51.988;6.020;2022-09-13T08:23:08;13.73;;;12.82;;
39066;SDS011;24821;51.988;6.020;2022-09-13T08:25:35;15.75;;;14.75;;
39066;SDS011;24821;51.988;6.020;2022-09-13T08:28:04;17.02;;;15.77;;
39066;SDS011;24821;51.988;6.020;2022-09-13T08:30:31;17.40;;;16.13;;
39066;SDS011;24821;51.988;6.020;2022-09-13T08:32:59;15.65;;;14.65;;
39066;SDS011;24821;51.988;6.020;2022-09-13T08:35:26;16.60;;;15.50;;
39066;SDS011;24821;51.988;6.020;2022-09-13T08:37:52;17.65;;;16.65;;
39066;SDS011;24821;51.988;6.020;2022-09-13T08:40:18;17.42;;;16.23;;
39066;SDS011;24821;51.988;6.020;2022-09-13T08:45:22;15.48;;;14.50;;
39066;SDS011;24821;51.988;6.020;2022-09-13T08:47:58;20.33;;;18.90;;
39066;SDS011;24821;51.988;6.020;2022-09-13T08:53:11;23.20;;;21.75;;
39066;SDS011;24821;51.988;6.020;2022-09-13T08:56:10;24.58;;;23.05;;
39066;SDS011;24821;51.988;6.020;2022-09-13T09:01:37;17.83;;;16.52;;
39066;SDS011;24821;51.988;6.020;2022-09-13T09:04:09;20.92;;;19.35;;
39066;SDS011;24821;51.988;6.020;2022-09-13T09:06:45;20.77;;;19.48;;
39066;SDS011;24821;51.988;6.020;2022-09-13T09:09:15;18.17;;;17.08;;
39066;SDS011;24821;51.988;6.020;2022-09-13T09:11:48;19.70;;;18.43;;
39066;SDS011;24821;51.988;6.020;2022-09-13T09:16:57;14.93;;;13.93;;
39066;SDS011;24821;51.988;6.020;2022-09-13T09:19:34;15.52;;;14.43;;
39066;SDS011;24821;51.988;6.020;2022-09-13T09:22:04;15.35;;;14.25;;
39066;SDS011;24821;51.988;6.020;2022-09-13T09:24:46;13.45;;;12.65;;
39066;SDS011;24821;51.988;6.020;2022-09-13T09:27:15;14.27;;;13.38;;
39066;SDS011;24821;51.988;6.020;2022-09-13T09:29:43;11.80;;;11.20;;
39066;SDS011;24821;51.988;6.020;2022-09-13T09:40:35;9.90;;;9.30;;
39066;SDS011;24821;51.988;6.020;2022-09-13T09:43:08;12.98;;;12.30;;
39066;SDS011;24821;51.988;6.020;2022-09-13T09:45:41;9.18;;;8.48;;
39066;SDS011;24821;51.988;6.020;2022-09-13T09:48:11;10.93;;;10.23;;
39066;SDS011;24821;51.988;6.020;2022-09-13T09:50:44;11.57;;;10.98;;
39066;SDS011;24821;51.988;6.020;2022-09-13T09:53:15;15.27;;;14.50;;
39066;SDS011;24821;51.988;6.020;2022-09-13T09:58:37;16.23;;;15.32;;
39066;SDS011;24821;51.988;6.020;2022-09-13T10:01:04;11.27;;;10.65;;
39066;SDS011;24821;51.988;6.020;2022-09-13T10:03:38;16.80;;;15.90;;
39066;SDS011;24821;51.988;6.020;2022-09-13T10:06:14;10.88;;;10.32;;
39066;SDS011;24821;51.988;6.020;2022-09-13T10:08:46;15.88;;;14.88;;
39066;SDS011;24821;51.988;6.020;2022-09-13T10:11:20;11.20;;;10.60;;
39066;SDS011;24821;51.988;6.020;2022-09-13T10:13:59;13.15;;;12.55;;
39066;SDS011;24821;51.988;6.020;2022-09-13T10:16:27;13.18;;;12.55;;
39066;SDS011;24821;51.988;6.020;2022-09-13T10:18:54;9.95;;;9.35;;
39066;SDS011;24821;51.988;6.020;2022-09-13T10:21:59;9.27;;;8.88;;
39066;SDS011;24821;51.988;6.020;2022-09-13T10:24:27;10.30;;;9.80;;
39066;SDS011;24821;51.988;6.020;2022-09-13T10:26:54;9.32;;;8.82;;
39066;SDS011;24821;51.988;6.020;2022-09-13T10:29:20;7.95;;;7.45;;
39066;SDS011;24821;51.988;6.020;2022-09-13T10:31:47;12.30;;;11.75;;
39066;SDS011;24821;51.988;6.020;2022-09-13T10:36:59;11.38;;;10.88;;
39066;SDS011;24821;51.988;6.020;2022-09-13T10:39:29;13.40;;;12.70;;
39066;SDS011;24821;51.988;6.020;2022-09-13T10:42:00;11.43;;;10.82;;
39066;SDS011;24821;51.988;6.020;2022-09-13T10:45:17;13.15;;;12.57;;
39066;SDS011;24821;51.988;6.020;2022-09-13T10:47:30;16.40;;;15.70;;
39066;SDS011;24821;51.988;6.020;2022-09-13T10:50:17;14.50;;;13.80;;
39066;SDS011;24821;51.988;6.020;2022-09-13T10:52:44;13.00;;;12.40;;
39066;SDS011;24821;51.988;6.020;2022-09-13T10:58:10;16.90;;;16.20;;
39066;SDS011;24821;51.988;6.020;2022-09-13T11:00:54;11.70;;;11.20;;
39066;SDS011;24821;51.988;6.020;2022-09-13T11:03:46;12.90;;;12.30;;
39066;SDS011;24821;51.988;6.020;2022-09-13T11:06:41;18.92;;;17.92;;
39066;SDS011;24821;51.988;6.020;2022-09-13T11:09:26;13.95;;;13.13;;
39066;SDS011;24821;51.988;6.020;2022-09-13T11:12:07;12.07;;;11.27;;
39066;SDS011;24821;51.988;6.020;2022-09-13T11:31:20;16.90;;;16.17;;
39066;SDS011;24821;51.988;6.020;2022-09-13T11:33:47;15.10;;;14.48;;
39066;SDS011;24821;51.988;6.020;2022-09-13T11:39:31;11.73;;;11.05;;
39066;SDS011;24821;51.988;6.020;2022-09-13T11:42:10;18.67;;;17.95;;
39066;SDS011;24821;51.988;6.020;2022-09-13T11:51:03;14.10;;;13.50;;
39066;SDS011;24821;51.988;6.020;2022-09-13T11:53:46;13.70;;;13.10;;
39066;SDS011;24821;51.988;6.020;2022-09-13T11:56:40;13.45;;;12.85;;
39066;SDS011;24821;51.988;6.020;2022-09-13T12:01:54;5.38;;;5.07;;
39066;SDS011;24821;51.988;6.020;2022-09-13T12:04:32;6.82;;;6.32;;
39066;SDS011;24821;51.988;6.020;2022-09-13T12:07:04;5.25;;;4.82;;
39066;SDS011;24821;51.988;6.020;2022-09-13T12:09:36;7.97;;;7.65;;
39066;SDS011;24821;51.988;6.020;2022-09-13T12:12:06;5.07;;;4.88;;
39066;SDS011;24821;51.988;6.020;2022-09-13T12:14:40;9.23;;;8.82;;
39066;SDS011;24821;51.988;6.020;2022-09-13T12:19:58;4.05;;;3.85;;
39066;SDS011;24821;51.988;6.020;2022-09-13T12:22:27;5.57;;;5.28;;
39066;SDS011;24821;51.988;6.020;2022-09-13T12:25:11;5.45;;;5.15;;
39066;SDS011;24821;51.988;6.020;2022-09-13T12:27:47;4.47;;;4.28;;
39066;SDS011;24821;51.988;6.020;2022-09-13T12:30:24;2.97;;;2.78;;
39066;SDS011;24821;51.988;6.020;2022-09-13T12:33:01;5.07;;;4.88;;
39066;SDS011;24821;51.988;6.020;2022-09-13T12:35:34;5.80;;;5.50;;
39066;SDS011;24821;51.988;6.020;2022-09-13T12:38:22;6.00;;;5.70;;
39066;SDS011;24821;51.988;6.020;2022-09-13T12:46:43;7.57;;;7.18;;
39066;SDS011;24821;51.988;6.020;2022-09-13T12:57:44;4.40;;;4.10;;
39066;SDS011;24821;51.988;6.020;2022-09-13T13:00:23;3.88;;;3.72;;
39066;SDS011;24821;51.988;6.020;2022-09-13T13:02:52;3.83;;;3.72;;
39066;SDS011;24821;51.988;6.020;2022-09-13T13:05:40;3.53;;;3.22;;
39066;SDS011;24821;51.988;6.020;2022-09-13T13:10:44;5.03;;;4.72;;
39066;SDS011;24821;51.988;6.020;2022-09-13T13:13:39;5.53;;;5.32;;
39066;SDS011;24821;51.988;6.020;2022-09-13T13:16:32;5.60;;;5.30;;
39066;SDS011;24821;51.988;6.020;2022-09-13T13:19:00;4.85;;;4.55;;
39066;SDS011;24821;51.988;6.020;2022-09-13T13:26:47;5.85;;;5.50;;
39066;SDS011;24821;51.988;6.020;2022-09-13T13:29:27;5.00;;;4.80;;
39066;SDS011;24821;51.988;6.020;2022-09-13T13:34:44;4.45;;;4.25;;
39066;SDS011;24821;51.988;6.020;2022-09-13T13:42:46;6.18;;;3.20;;
39066;SDS011;24821;51.988;6.020;2022-09-13T13:45:34;5.10;;;4.80;;
39066;SDS011;24821;51.988;6.020;2022-09-13T13:51:26;4.60;;;4.40;;
39066;SDS011;24821;51.988;6.020;2022-09-13T13:54:02;4.90;;;4.60;;
39066;SDS011;24821;51.988;6.020;2022-09-13T13:56:48;5.93;;;5.63;;
39066;SDS011;24821;51.988;6.020;2022-09-13T13:59:26;6.97;;;6.72;;
39066;SDS011;24821;51.988;6.020;2022-09-13T14:02:02;6.30;;;6.00;;
39066;SDS011;24821;51.988;6.020;2022-09-13T14:04:43;5.70;;;5.50;;
39066;SDS011;24821;51.988;6.020;2022-09-13T14:12:53;6.13;;;5.82;;
39066;SDS011;24821;51.988;6.020;2022-09-13T14:18:58;5.32;;;5.03;;
39066;SDS011;24821;51.988;6.020;2022-09-13T14:21:18;5.25;;;4.95;;
39066;SDS011;24821;51.988;6.020;2022-09-13T14:23:46;7.43;;;7.10;;
39066;SDS011;24821;51.988;6.020;2022-09-13T14:26:11;3.90;;;3.70;;
39066;SDS011;24821;51.988;6.020;2022-09-13T14:28:37;4.88;;;4.70;;
39066;SDS011;24821;51.988;6.020;2022-09-13T14:31:04;4.05;;;3.85;;
39066;SDS011;24821;51.988;6.020;2022-09-13T14:33:31;2.88;;;2.78;;
39066;SDS011;24821;51.988;6.020;2022-09-13T14:38:29;2.90;;;2.80;;
39066;SDS011;24821;51.988;6.020;2022-09-13T14:43:33;2.67;;;2.58;;
39066;SDS011;24821;51.988;6.020;2022-09-13T14:46:13;3.28;;;3.13;;
39066;SDS011;24821;51.988;6.020;2022-09-13T14:49:00;6.63;;;6.20;;
39066;SDS011;24821;51.988;6.020;2022-09-13T14:51:34;5.75;;;5.45;;
39066;SDS011;24821;51.988;6.020;2022-09-13T14:57:22;3.83;;;3.63;;
39066;SDS011;24821;51.988;6.020;2022-09-13T14:59:55;2.92;;;2.75;;
39066;SDS011;24821;51.988;6.020;2022-09-13T15:02:28;2.42;;;2.22;;
39066;SDS011;24821;51.988;6.020;2022-09-13T15:04:56;2.28;;;2.17;;
39066;SDS011;24821;51.988;6.020;2022-09-13T15:07:30;3.08;;;2.97;;
39066;SDS011;24821;51.988;6.020;2022-09-13T15:12:30;5.50;;;5.30;;
39066;SDS011;24821;51.988;6.020;2022-09-13T15:15:13;3.15;;;2.50;;
39066;SDS011;24821;51.988;6.020;2022-09-13T15:17:52;3.55;;;3.30;;
39066;SDS011;24821;51.988;6.020;2022-09-13T15:20:22;4.50;;;4.20;;
39066;SDS011;24821;51.988;6.020;2022-09-13T15:22:49;4.15;;;3.97;;
39066;SDS011;24821;51.988;6.020;2022-09-13T15:25:27;4.18;;;3.97;;
39066;SDS011;24821;51.988;6.020;2022-09-13T15:27:56;4.38;;;4.07;;
39066;SDS011;24821;51.988;6.020;2022-09-13T15:30:26;4.38;;;4.18;;
39066;SDS011;24821;51.988;6.020;2022-09-13T15:35:37;3.83;;;3.58;;
39066;SDS011;24821;51.988;6.020;2022-09-13T15:38:15;3.25;;;3.10;;
39066;SDS011;24821;51.988;6.020;2022-09-13T15:40:58;3.58;;;3.47;;
39066;SDS011;24821;51.988;6.020;2022-09-13T15:43:43;5.22;;;4.93;;
39066;SDS011;24821;51.988;6.020;2022-09-13T15:46:13;4.32;;;3.97;;
39066;SDS011;24821;51.988;6.020;2022-09-13T15:48:40;3.70;;;3.33;;
39066;SDS011;24821;51.988;6.020;2022-09-13T15:51:11;4.13;;;4.03;;
39066;SDS011;24821;51.988;6.020;2022-09-13T15:53:39;3.13;;;3.00;;
39066;SDS011;24821;51.988;6.020;2022-09-13T15:56:06;4.00;;;3.70;;
39066;SDS011;24821;51.988;6.020;2022-09-13T15:58:33;4.60;;;4.30;;
39066;SDS011;24821;51.988;6.020;2022-09-13T16:01:00;3.42;;;3.25;;
39066;SDS011;24821;51.988;6.020;2022-09-13T16:03:26;2.80;;;2.70;;
39066;SDS011;24821;51.988;6.020;2022-09-13T16:05:52;4.38;;;4.10;;
39066;SDS011;24821;51.988;6.020;2022-09-13T16:08:18;4.50;;;4.22;;
39066;SDS011;24821;51.988;6.020;2022-09-13T16:10:43;3.20;;;3.00;;
39066;SDS011;24821;51.988;6.020;2022-09-13T16:13:09;4.32;;;3.95;;
39066;SDS011;24821;51.988;6.020;2022-09-13T16:15:35;4.03;;;3.90;;
39066;SDS011;24821;51.988;6.020;2022-09-13T16:18:00;4.07;;;3.97;;
39066;SDS011;24821;51.988;6.020;2022-09-13T16:20:26;4.85;;;4.47;;
39066;SDS011;24821;51.988;6.020;2022-09-13T16:22:52;3.72;;;3.53;;
39066;SDS011;24821;51.988;6.020;2022-09-13T16:25:18;4.00;;;3.80;;
39066;SDS011;24821;51.988;6.020;2022-09-13T16:27:44;3.70;;;3.53;;
39066;SDS011;24821;51.988;6.020;2022-09-13T16:30:14;2.97;;;2.88;;
39066;SDS011;24821;51.988;6.020;2022-09-13T16:32:42;3.08;;;2.78;;
39066;SDS011;24821;51.988;6.020;2022-09-13T16:35:08;2.78;;;2.65;;
39066;SDS011;24821;51.988;6.020;2022-09-13T16:37:35;3.60;;;3.40;;
39066;SDS011;24821;51.988;6.020;2022-09-13T16:40:01;3.83;;;3.63;;
39066;SDS011;24821;51.988;6.020;2022-09-13T16:42:27;5.10;;;4.90;;
39066;SDS011;24821;51.988;6.020;2022-09-13T16:44:53;4.93;;;4.72;;
39066;SDS011;24821;51.988;6.020;2022-09-13T16:47:18;7.05;;;6.60;;
39066;SDS011;24821;51.988;6.020;2022-09-13T16:49:44;4.68;;;4.38;;
39066;SDS011;24821;51.988;6.020;2022-09-13T16:52:09;4.97;;;4.78;;
39066;SDS011;24821;51.988;6.020;2022-09-13T16:54:35;5.85;;;5.45;;
39066;SDS011;24821;51.988;6.020;2022-09-13T16:57:04;5.03;;;4.82;;
39066;SDS011;24821;51.988;6.020;2022-09-13T16:59:31;5.18;;;4.97;;
39066;SDS011;24821;51.988;6.020;2022-09-13T17:01:57;5.03;;;4.72;;
39066;SDS011;24821;51.988;6.020;2022-09-13T17:04:23;7.38;;;7.03;;
39066;SDS011;24821;51.988;6.020;2022-09-13T17:06:48;7.63;;;7.20;;
39066;SDS011;24821;51.988;6.020;2022-09-13T17:09:14;8.23;;;7.82;;
39066;SDS011;24821;51.988;6.020;2022-09-13T17:11:41;9.20;;;8.77;;
39066;SDS011;24821;51.988;6.020;2022-09-13T17:14:08;9.60;;;9.10;;
39066;SDS011;24821;51.988;6.020;2022-09-13T17:19:05;7.07;;;6.68;;
39066;SDS011;24821;51.988;6.020;2022-09-13T17:21:33;8.63;;;8.07;;
39066;SDS011;24821;51.988;6.020;2022-09-13T17:23:59;6.40;;;6.13;;
39066;SDS011;24821;51.988;6.020;2022-09-13T17:26:25;6.13;;;5.82;;
39066;SDS011;24821;51.988;6.020;2022-09-13T17:28:50;5.10;;;4.88;;
39066;SDS011;24821;51.988;6.020;2022-09-13T17:31:16;9.98;;;9.48;;
39066;SDS011;24821;51.988;6.020;2022-09-13T17:33:43;7.30;;;6.75;;
39066;SDS011;24821;51.988;6.020;2022-09-13T17:36:09;7.10;;;6.80;;
39066;SDS011;24821;51.988;6.020;2022-09-13T17:38:37;6.25;;;5.32;;
39066;SDS011;24821;51.988;6.020;2022-09-13T17:41:07;6.97;;;6.68;;
39066;SDS011;24821;51.988;6.020;2022-09-13T17:43:37;5.93;;;5.63;;
39066;SDS011;24821;51.988;6.020;2022-09-13T17:46:04;5.43;;;5.07;;
39066;SDS011;24821;51.988;6.020;2022-09-13T17:48:40;4.55;;;4.25;;
39066;SDS011;24821;51.988;6.020;2022-09-13T17:51:07;5.07;;;4.72;;
39066;SDS011;24821;51.988;6.020;2022-09-13T17:53:42;4.88;;;4.68;;
39066;SDS011;24821;51.988;6.020;2022-09-13T17:56:20;6.05;;;5.60;;
39066;SDS011;24821;51.988;6.020;2022-09-13T17:58:47;5.78;;;5.40;;
39066;SDS011;24821;51.988;6.020;2022-09-13T18:01:13;5.65;;;5.35;;